Time;durP1;ratioP1;P1;durP2;ratioP2;P2;SDS_P1;SDS_P2;PMS_P1;PMS_P2;Temp;Humidity;BMP_temperature;BMP_pressure;BME280_temperature;BME280_humidity;BME280_pressure;Samples;Min_cycle;Max_cycle;Signal;HPM_P1;HPM_P2
2022/03/30 00:00:56;;;;;;;10.27;3.10;;;;;;;0.94;100.00;99848.69;5073789;28;20597;-74
2022/03/30 00:03:21;;;;;;;8.87;2.93;;;;;;;1.00;100.00;99825.28;5073903;28;20170;-75
2022/03/30 00:05:46;;;;;;;5.53;3.57;;;;;;;0.95;100.00;99855.69;5073729;28;20375;-75
2022/03/30 00:08:12;;;;;;;5.53;3.10;;;;;;;0.89;100.00;99845.97;5073580;28;20202;-74
2022/03/30 00:10:37;;;;;;;10.83;2.77;;;;;;;0.84;100.00;99836.00;5073783;28;20174;-76
2022/03/30 00:13:02;;;;;;;5.37;3.53;;;;;;;0.80;100.00;99839.47;5073735;28;20174;-76
2022/03/30 00:15:28;;;;;;;7.73;3.17;;;;;;;0.74;100.00;99840.53;5073683;28;20712;-76
2022/03/30 00:17:54;;;;;;;5.20;3.03;;;;;;;0.67;100.00;99835.38;5073247;28;20239;-75
2022/03/30 00:20:20;;;;;;;7.10;3.37;;;;;;;0.63;100.00;99834.28;5073644;28;20174;-75
2022/03/30 00:22:46;;;;;;;5.53;3.10;;;;;;;0.66;100.00;99839.13;5072259;28;20179;-76
2022/03/30 00:25:12;;;;;;;4.57;3.20;;;;;;;0.74;100.00;99832.47;5073497;28;20182;-77
2022/03/30 00:27:39;;;;;;;3.57;3.27;;;;;;;0.78;100.00;99818.22;5073329;28;20340;-74
2022/03/30 00:30:05;;;;;;;12.00;2.60;;;;;;;0.80;100.00;99840.28;5073280;28;20248;-75
2022/03/30 00:32:31;;;;;;;6.20;3.00;;;;;;;0.76;100.00;99811.50;5073289;28;20174;-76
2022/03/30 00:34:56;;;;;;;7.97;2.13;;;;;;;0.73;100.00;99839.72;5073327;28;20459;-74
2022/03/30 00:37:22;;;;;;;13.30;2.23;;;;;;;0.69;100.00;99835.13;5073025;28;20206;-75
2022/03/30 00:39:47;;;;;;;3.60;2.60;;;;;;;0.64;100.00;99829.72;5073102;28;20194;-74
2022/03/30 00:42:17;;;;;;;2.80;2.53;;;;;;;0.63;100.00;99826.22;5073235;28;20179;-75
2022/03/30 00:44:43;;;;;;;3.90;3.17;;;;;;;0.63;100.00;99828.09;5073195;28;20180;-75
2022/03/30 00:47:16;;;;;;;5.93;2.83;;;;;;;0.60;100.00;99829.44;5072838;28;20199;-75
2022/03/30 00:49:42;;;;;;;1.73;1.60;;;;;;;0.53;100.00;99821.59;5072000;28;20179;-76
2022/03/30 00:52:09;;;;;;;2.83;2.20;;;;;;;0.47;100.00;99822.66;5072926;28;20629;-75
2022/03/30 00:54:35;;;;;;;3.10;2.57;;;;;;;0.39;100.00;99820.44;5073022;28;20183;-73
2022/03/30 00:57:01;;;;;;;4.20;2.30;;;;;;;0.37;100.00;99814.53;5072734;28;20421;-77
2022/03/30 00:59:27;;;;;;;5.50;2.30;;;;;;;0.33;100.00;99813.44;5072875;28;20683;-77
2022/03/30 01:01:52;;;;;;;2.83;2.07;;;;;;;0.31;100.00;99814.75;5073455;28;20416;-78
2022/03/30 01:04:18;;;;;;;7.70;2.17;;;;;;;0.34;100.00;99817.72;5072811;28;20191;-77
2022/03/30 01:06:43;;;;;;;12.63;2.83;;;;;;;0.32;100.00;99795.69;5072642;28;20296;-78
2022/03/30 01:09:09;;;;;;;3.07;2.20;;;;;;;0.32;100.00;99794.88;5072671;28;20206;-77
2022/03/30 01:11:34;;;;;;;2.87;1.83;;;;;;;0.29;100.00;99794.34;5072616;28;20177;-78
2022/03/30 01:14:00;;;;;;;6.43;2.27;;;;;;;0.28;100.00;99784.63;5072616;28;20912;-78
2022/03/30 01:16:25;;;;;;;5.43;2.30;;;;;;;0.36;100.00;99795.97;5072622;28;20253;-77
2022/03/30 01:19:02;;;;;;;5.27;2.20;;;;;;;0.40;100.00;99797.88;5072203;28;20185;-77
2022/03/30 01:21:27;;;;;;;8.03;2.13;;;;;;;0.35;100.00;99805.91;5072623;28;20170;-78
2022/03/30 01:23:52;;;;;;;2.67;1.77;;;;;;;0.32;100.00;99792.19;5072290;28;20851;-76
2022/03/30 01:26:18;;;;;;;5.13;2.70;;;;;;;0.26;100.00;99791.34;5072365;28;20178;-77
2022/03/30 01:28:44;;;;;;;4.73;2.20;;;;;;;0.25;100.00;99787.03;5072106;28;20210;-78
2022/03/30 01:33:53;;;;;;;2.03;1.30;;;;;;;0.27;100.00;99776.84;5072303;28;20205;-78
2022/03/30 01:36:18;;;;;;;2.20;1.90;;;;;;;0.22;100.00;99790.25;5071953;28;20448;-78
2022/03/30 01:38:44;;;;;;;2.40;2.03;;;;;;;0.18;100.00;99765.78;5071875;28;20273;-78
2022/03/30 01:41:10;;;;;;;2.53;2.07;;;;;;;0.15;100.00;99787.00;5072086;28;20227;-77
2022/03/30 01:43:35;;;;;;;5.27;1.93;;;;;;;0.11;100.00;99780.50;5072136;28;20425;-77
2022/03/30 01:46:01;;;;;;;5.50;3.07;;;;;;;0.11;100.00;99762.50;5071874;28;20582;-78
2022/03/30 01:48:27;;;;;;;7.63;2.83;;;;;;;0.11;100.00;99749.09;5071706;28;20245;-76
2022/03/30 01:50:52;;;;;;;6.17;3.10;;;;;;;0.12;100.00;99766.81;5071805;28;20657;-78
2022/03/30 01:53:18;;;;;;;6.07;2.63;;;;;;;0.14;100.00;99764.66;5071674;28;20194;-77
2022/03/30 01:55:43;;;;;;;3.73;1.70;;;;;;;0.11;100.00;99762.50;5071730;28;20181;-78
2022/03/30 01:58:09;;;;;;;7.07;2.80;;;;;;;0.10;100.00;99760.09;5071623;28;20685;-78
2022/03/30 02:00:35;;;;;;;4.23;2.30;;;;;;;0.06;100.00;99761.69;5071269;28;20594;-78
2022/03/30 02:03:01;;;;;;;4.17;2.70;;;;;;;0.04;100.00;99751.22;5071718;28;20312;-77
2022/03/30 02:05:28;;;;;;;6.97;1.73;;;;;;;0.01;100.00;99748.25;5071492;28;20170;-76
2022/03/30 02:07:54;;;;;;;4.83;2.13;;;;;;;0.03;100.00;99752.28;5071513;28;20460;-78
2022/03/30 02:10:20;;;;;;;3.90;2.97;;;;;;;0.07;100.00;99747.19;5071494;28;20236;-77
2022/03/30 02:12:46;;;;;;;4.20;2.87;;;;;;;0.12;100.00;99742.66;5071642;28;20178;-77
2022/03/30 02:15:12;;;;;;;3.70;3.10;;;;;;;0.15;100.00;99741.34;5071411;28;20183;-76
2022/03/30 02:17:38;;;;;;;4.17;3.17;;;;;;;0.17;100.00;99726.56;5070881;28;20197;-77
2022/03/30 02:20:05;;;;;;;4.40;3.50;;;;;;;0.22;100.00;99731.97;5071341;28;20217;-78
2022/03/30 02:22:30;;;;;;;5.77;4.00;;;;;;;0.24;100.00;99731.69;5071365;28;20963;-78
2022/03/30 02:24:56;;;;;;;9.43;3.90;;;;;;;0.32;100.00;99733.91;5071324;28;20174;-75
2022/03/30 02:27:22;;;;;;;4.97;3.37;;;;;;;0.41;100.00;99728.81;5070989;28;20710;-76
2022/03/30 02:29:49;;;;;;;7.47;2.97;;;;;;;0.54;100.00;99731.84;5071170;28;20216;-76
2022/03/30 02:32:14;;;;;;;5.03;3.10;;;;;;;0.61;100.00;99717.38;5071138;28;20183;-76
2022/03/30 02:34:41;;;;;;;7.10;3.60;;;;;;;0.62;100.00;99705.53;5071225;28;20167;-75
2022/03/30 02:37:06;;;;;;;3.90;2.93;;;;;;;0.59;100.00;99712.25;5071041;28;20201;-75
2022/03/30 02:39:31;;;;;;;9.20;3.37;;;;;;;0.42;100.00;99715.13;5070906;28;20186;-77
2022/03/30 02:41:57;;;;;;;3.47;2.80;;;;;;;0.22;100.00;99707.78;5071124;28;20224;-77
2022/03/30 02:44:22;;;;;;;11.10;3.20;;;;;;;0.19;100.00;99699.47;5071265;28;20178;-76
2022/03/30 02:46:49;;;;;;;5.80;2.50;;;;;;;0.21;100.00;99713.44;5071219;28;20175;-75
2022/03/30 02:49:15;;;;;;;3.17;2.50;;;;;;;0.18;100.00;99703.22;5071012;28;20171;-79
2022/03/30 02:51:40;;;;;;;3.53;2.17;;;;;;;0.19;100.00;99694.09;5070898;28;20713;-78
2022/03/30 02:54:06;;;;;;;6.63;2.30;;;;;;;0.08;100.00;99703.97;5071040;28;20227;-76
2022/03/30 02:56:32;;;;;;;4.33;1.63;;;;;;;0.04;100.00;99694.00;5069517;28;20179;-76
2022/03/30 02:58:58;;;;;;;5.97;2.37;;;;;;;0.01;100.00;99707.97;5070610;28;20761;-74
2022/03/30 03:01:23;;;;;;;7.60;2.00;;;;;;;-0.06;100.00;99703.63;5070876;28;20181;-75
2022/03/30 03:03:49;;;;;;;2.97;1.67;;;;;;;-0.05;100.00;99701.75;5070728;28;20178;-76
2022/03/30 03:06:14;;;;;;;5.23;2.37;;;;;;;-0.02;100.00;99696.66;5070822;28;20174;-76
2022/03/30 03:08:39;;;;;;;4.10;1.90;;;;;;;0.00;100.00;99691.03;5070529;28;20216;-76
2022/03/30 03:11:05;;;;;;;2.10;1.80;;;;;;;0.02;100.00;99704.22;5070647;28;20282;-74
2022/03/30 03:13:30;;;;;;;4.07;2.60;;;;;;;0.02;100.00;99701.53;5069935;28;20175;-76
2022/03/30 03:15:56;;;;;;;4.57;2.20;;;;;;;-0.02;100.00;99693.97;5070612;28;20196;-75
2022/03/30 03:18:21;;;;;;;3.43;2.60;;;;;;;-0.06;100.00;99684.00;5070790;28;20594;-75
2022/03/30 03:20:48;;;;;;;2.93;2.40;;;;;;;-0.03;100.00;99684.28;5070680;28;20175;-74
2022/03/30 03:23:16;;;;;;;2.80;1.77;;;;;;;-0.06;100.00;99684.81;5070549;28;20174;-77
2022/03/30 03:25:41;;;;;;;6.60;3.43;;;;;;;-0.12;100.00;99675.13;5070614;28;20394;-75
2022/03/30 03:28:11;;;;;;;9.73;3.80;;;;;;;-0.12;100.00;99680.50;5070293;28;20202;-78
2022/03/30 03:30:38;;;;;;;6.63;3.37;;;;;;;-0.19;100.00;99671.84;5070451;28;20202;-73
2022/03/30 03:33:04;;;;;;;5.00;3.27;;;;;;;-0.22;100.00;99666.22;5070654;28;20182;-75
2022/03/30 03:35:30;;;;;;;3.20;2.90;;;;;;;-0.30;100.00;99670.16;5070353;28;20907;-74
2022/03/30 03:37:56;;;;;;;4.37;2.83;;;;;;;-0.37;100.00;99667.72;5070075;28;20417;-75
2022/03/30 03:40:21;;;;;;;4.47;4.03;;;;;;;-0.39;100.00;99658.31;5070555;28;20183;-74
2022/03/30 03:42:48;;;;;;;5.33;3.27;;;;;;;-0.40;100.00;99665.56;5069880;28;20505;-76
2022/03/30 03:45:14;;;;;;;8.50;3.07;;;;;;;-0.39;100.00;99664.50;5068495;28;20174;-75
2022/03/30 03:47:41;;;;;;;4.07;2.30;;;;;;;-0.32;100.00;99657.00;5070011;28;20201;-72
2022/03/30 03:50:07;;;;;;;6.33;2.53;;;;;;;-0.19;100.00;99653.06;5071385;28;20421;-73
2022/03/30 03:52:32;;;;;;;3.77;2.27;;;;;;;-0.11;100.00;99652.59;5071760;28;20959;-72
2022/03/30 03:54:58;;;;;;;7.73;3.53;;;;;;;0.01;100.00;99651.56;5070335;28;20170;-72
2022/03/30 03:57:24;;;;;;;4.67;3.10;;;;;;;0.15;100.00;99650.84;5070058;28;20680;-74
2022/03/30 03:59:49;;;;;;;3.40;2.20;;;;;;;0.26;100.00;99655.16;5070021;28;20187;-75
2022/03/30 04:02:14;;;;;;;3.10;2.57;;;;;;;0.35;100.00;99643.91;5070127;28;20182;-75
2022/03/30 04:04:40;;;;;;;6.47;3.30;;;;;;;0.48;100.00;99651.47;5070187;28;20250;-71
2022/03/30 04:07:05;;;;;;;6.50;2.73;;;;;;;0.61;100.00;99655.56;5069661;28;20255;-73
2022/03/30 04:09:31;;;;;;;5.60;2.97;;;;;;;0.70;100.00;99648.56;5070164;28;20626;-72
2022/03/30 04:11:56;;;;;;;4.10;2.97;;;;;;;0.76;100.00;99642.13;5070419;28;20858;-72
2022/03/30 04:14:22;;;;;;;6.47;2.90;;;;;;;0.83;100.00;99650.75;5069971;28;20706;-73
2022/03/30 04:16:47;;;;;;;8.10;2.77;;;;;;;0.89;100.00;99647.81;5069936;28;20171;-73
2022/03/30 04:19:15;;;;;;;6.23;3.67;;;;;;;0.93;100.00;99641.88;5069969;28;20252;-74
2022/03/30 04:21:41;;;;;;;5.83;4.23;;;;;;;0.94;100.00;99614.72;5069983;28;20512;-75
2022/03/30 04:24:07;;;;;;;12.03;4.43;;;;;;;0.95;100.00;99619.03;5071775;28;20182;-71
2022/03/30 04:26:32;;;;;;;9.70;4.30;;;;;;;1.07;100.00;99621.47;5073321;28;20182;-75
2022/03/30 04:28:57;;;;;;;6.83;4.63;;;;;;;1.12;100.00;99616.88;5073378;28;20206;-71
2022/03/30 04:31:23;;;;;;;6.00;4.43;;;;;;;1.17;100.00;99614.19;5073320;28;20175;-76
2022/03/30 04:33:48;;;;;;;5.40;4.10;;;;;;;1.20;100.00;99610.16;5073457;28;20261;-73
2022/03/30 04:36:13;;;;;;;10.07;4.07;;;;;;;1.20;100.00;99623.63;5073457;28;20175;-72
2022/03/30 04:38:39;;;;;;;5.23;3.60;;;;;;;1.31;100.00;99624.41;5073120;28;20198;-73
2022/03/30 04:41:04;;;;;;;14.03;4.07;;;;;;;1.32;100.00;99612.56;5073301;28;20249;-71
2022/03/30 04:43:30;;;;;;;5.87;2.90;;;;;;;1.37;100.00;99617.94;5073219;28;20181;-73
2022/03/30 04:45:55;;;;;;;4.47;3.53;;;;;;;1.44;100.00;99627.34;5071746;28;20186;-71
2022/03/30 04:48:22;;;;;;;6.00;4.30;;;;;;;1.48;100.00;99633.00;5072919;28;20210;-71
2022/03/30 04:50:52;;;;;;;10.40;3.57;;;;;;;1.35;100.00;99649.69;5073125;28;20181;-72
2022/03/30 04:53:17;;;;;;;9.93;4.87;;;;;;;1.28;100.00;99638.38;5073055;28;20175;-73
2022/03/30 04:55:43;;;;;;;3.87;3.47;;;;;;;1.27;100.00;99617.94;5072640;28;20529;-74
2022/03/30 04:58:09;;;;;;;8.30;3.77;;;;;;;1.28;100.00;99635.69;5072591;28;20179;-74
2022/03/30 05:00:34;;;;;;;9.80;3.67;;;;;;;1.28;100.00;99633.81;5073030;28;20255;-78
2022/03/30 05:03:00;;;;;;;5.07;3.47;;;;;;;1.25;100.00;99636.25;5072921;28;20630;-72
2022/03/30 05:05:25;;;;;;;6.87;4.10;;;;;;;1.17;100.00;99626.84;5072795;28;20171;-72
2022/03/30 05:07:50;;;;;;;7.47;4.23;;;;;;;1.19;100.00;99616.63;5072540;28;20200;-73
2022/03/30 05:10:16;;;;;;;5.83;3.43;;;;;;;1.15;100.00;99620.91;5072772;28;20208;-75
2022/03/30 05:12:42;;;;;;;10.57;4.13;;;;;;;1.17;100.00;99624.16;5072861;28;20182;-75
2022/03/30 05:15:09;;;;;;;6.87;4.13;;;;;;;1.19;100.00;99625.50;5072551;28;20167;-75
2022/03/30 05:17:37;;;;;;;6.57;3.17;;;;;;;1.26;100.00;99622.53;5072438;28;20262;-72
2022/03/30 05:20:03;;;;;;;3.80;3.03;;;;;;;1.34;100.00;99618.50;5071326;28;20266;-72
2022/03/30 05:22:29;;;;;;;6.47;3.57;;;;;;;1.12;100.00;99624.13;5072325;28;20228;-72
2022/03/30 05:24:54;;;;;;;6.57;4.23;;;;;;;1.28;100.00;99635.69;5072445;28;20598;-72
2022/03/30 05:27:19;;;;;;;8.00;4.70;;;;;;;1.18;100.00;99625.78;5071956;28;20229;-72
2022/03/30 05:29:45;;;;;;;5.47;4.03;;;;;;;1.32;100.00;99624.16;5072387;28;20189;-74
2022/03/30 05:32:10;;;;;;;5.30;4.67;;;;;;;1.30;100.00;99620.09;5072447;28;20166;-74
2022/03/30 05:34:36;;;;;;;6.30;4.90;;;;;;;1.41;100.00;99616.31;5072101;28;20633;-72
2022/03/30 05:37:01;;;;;;;11.47;4.90;;;;;;;1.40;100.00;99612.81;5071598;28;20198;-73
2022/03/30 05:39:26;;;;;;;7.67;4.70;;;;;;;1.32;100.00;99613.38;5071957;28;20552;-73
2022/03/30 05:41:52;;;;;;;7.80;5.60;;;;;;;1.18;100.00;99612.31;5071928;28;20270;-73
2022/03/30 05:44:18;;;;;;;8.13;5.10;;;;;;;0.78;100.00;99605.84;5070819;28;20185;-73
2022/03/30 05:46:43;;;;;;;6.47;5.07;;;;;;;1.01;100.00;99623.31;5071967;28;20280;-73
2022/03/30 05:49:09;;;;;;;5.67;5.00;;;;;;;1.15;100.00;99624.41;5071833;28;20602;-73
2022/03/30 05:51:35;;;;;;;15.07;5.40;;;;;;;1.12;100.00;99622.25;5072276;28;20218;-72
2022/03/30 05:54:00;;;;;;;5.77;3.83;;;;;;;1.00;100.00;99604.78;5071802;28;20651;-73
2022/03/30 05:59:11;;;;;;;5.87;4.77;;;;;;;0.84;100.00;99596.69;5071691;28;20313;-74
2022/03/30 06:01:37;;;;;;;6.03;5.07;;;;;;;0.90;100.00;99608.28;5071717;28;20167;-74
2022/03/30 06:04:02;;;;;;;5.63;4.43;;;;;;;0.99;100.00;99603.97;5072013;28;20190;-74
2022/03/30 06:06:28;;;;;;;10.03;5.50;;;;;;;1.07;100.00;99608.81;5071625;28;20166;-74
2022/03/30 06:08:54;;;;;;;5.47;4.97;;;;;;;1.20;100.00;99604.78;5071209;28;20202;-73
2022/03/30 06:11:19;;;;;;;9.23;6.10;;;;;;;1.27;100.00;99613.38;5071548;28;20517;-72
2022/03/30 06:13:44;;;;;;;7.90;5.37;;;;;;;1.31;100.00;99611.78;5071773;28;20277;-73
2022/03/30 06:16:10;;;;;;;9.87;6.30;;;;;;;1.24;100.00;99611.22;5070499;28;20171;-72
2022/03/30 06:18:36;;;;;;;8.40;5.30;;;;;;;1.36;100.00;99611.75;5070295;28;20551;-72
2022/03/30 06:21:02;;;;;;;6.53;5.73;;;;;;;1.59;100.00;99620.31;5070926;28;20258;-76
2022/03/30 06:23:28;;;;;;;7.20;6.50;;;;;;;1.69;100.00;99621.09;5070885;28;20166;-73
2022/03/30 06:25:54;;;;;;;5.97;5.07;;;;;;;1.77;100.00;99617.06;5070812;28;20629;-73
2022/03/30 06:28:23;;;;;;;12.13;6.03;;;;;;;1.83;100.00;99628.63;5070503;28;20230;-72
2022/03/30 06:30:48;;;;;;;10.10;6.20;;;;;;;1.92;100.00;99626.97;5070786;28;20715;-72
2022/03/30 06:33:14;;;;;;;12.43;6.63;;;;;;;1.76;100.00;99623.53;5070810;28;20174;-72
2022/03/30 06:35:39;;;;;;;7.33;6.60;;;;;;;1.63;100.00;99616.81;5070693;28;20202;-74
2022/03/30 06:38:05;;;;;;;11.93;7.27;;;;;;;1.59;100.00;99628.38;5070458;28;20600;-72
2022/03/30 06:40:32;;;;;;;16.40;8.77;;;;;;;1.61;100.00;99600.16;5070413;28;20228;-77
2022/03/30 06:43:00;;;;;;;45.27;16.97;;;;;;;1.68;100.00;99622.19;5070981;28;20170;-73
2022/03/30 06:45:25;;;;;;;49.80;19.00;;;;;;;1.86;100.00;99606.53;5070524;28;20224;-74
2022/03/30 06:47:51;;;;;;;20.27;8.80;;;;;;;1.89;100.00;99606.00;5069703;28;20210;-74
2022/03/30 06:50:18;;;;;;;15.53;8.37;;;;;;;1.85;100.00;99591.44;5070884;28;20167;-75
2022/03/30 06:52:44;;;;;;;9.10;8.00;;;;;;;1.80;100.00;99592.28;5070918;28;20167;-73
2022/03/30 06:55:12;;;;;;;11.60;7.73;;;;;;;2.05;100.00;99621.00;5070733;28;20273;-75
2022/03/30 06:57:38;;;;;;;9.97;8.23;;;;;;;2.24;100.00;99621.19;5070735;28;20175;-75
2022/03/30 07:00:05;;;;;;;32.77;18.63;;;;;;;2.11;100.00;99619.09;5070471;28;20198;-76
2022/03/30 07:02:30;;;;;;;18.33;9.40;;;;;;;2.15;100.00;99610.19;5070454;28;20669;-73
2022/03/30 07:04:55;;;;;;;15.30;10.50;;;;;;;2.13;100.00;99611.53;5070884;28;20174;-75
2022/03/30 07:10:15;;;;;;;15.90;8.27;;;;;;;2.11;100.00;99625.28;5070773;28;20192;-76
2022/03/30 07:12:41;;;;;;;17.03;10.70;;;;;;;2.12;100.00;99618.81;5070498;28;20495;-74
2022/03/30 07:15:07;;;;;;;10.80;8.03;;;;;;;2.19;100.00;99616.66;5070248;28;20178;-78
2022/03/30 07:17:33;;;;;;;12.43;8.37;;;;;;;2.13;100.00;99612.34;5070153;28;20282;-79
2022/03/30 07:19:59;;;;;;;15.40;9.83;;;;;;;2.13;100.00;99611.53;5070144;28;20171;-75
2022/03/30 07:22:24;;;;;;;13.50;9.47;;;;;;;2.14;100.00;99610.44;5070197;28;20171;-75
2022/03/30 07:24:49;;;;;;;11.47;9.43;;;;;;;2.05;100.00;99616.44;5070332;28;20179;-74
2022/03/30 07:27:15;;;;;;;11.03;9.50;;;;;;;2.15;100.00;99615.56;5069406;28;20214;-74
2022/03/30 07:29:40;;;;;;;17.53;9.17;;;;;;;2.35;100.00;99623.56;5070069;28;20177;-74
2022/03/30 07:32:06;;;;;;;18.40;9.30;;;;;;;2.56;100.00;99628.84;5070026;28;20243;-77
2022/03/30 07:34:31;;;;;;;11.40;7.63;;;;;;;2.58;100.00;99624.78;5070331;28;20706;-76
2022/03/30 07:36:57;;;;;;;16.07;8.70;;;;;;;2.55;100.00;99616.44;5068709;28;20166;-75
2022/03/30 07:39:22;;;;;;;14.40;8.83;;;;;;;2.71;100.00;99628.75;5070015;28;20201;-79
2022/03/30 07:41:48;;;;;;;15.67;8.43;;;;;;;2.77;100.00;99611.47;5070103;28;20536;-71
2022/03/30 07:44:13;;;;;;;12.70;8.50;;;;;;;2.79;100.00;99620.06;5070027;28;20173;-79
2022/03/30 07:46:39;;;;;;;14.60;8.30;;;;;;;2.89;100.00;99614.63;5069848;28;20232;-73
2022/03/30 07:49:04;;;;;;;14.90;8.30;;;;;;;2.85;100.00;99613.56;5069979;28;20301;-75
2022/03/30 07:51:29;;;;;;;33.27;16.80;;;;;;;3.10;100.00;99604.47;5070092;28;20179;-78
2022/03/30 07:53:55;;;;;;;10.10;9.00;;;;;;;3.06;100.00;99608.03;5069933;28;20679;-74
2022/03/30 07:56:21;;;;;;;14.40;8.40;;;;;;;3.30;100.00;99614.28;5067987;28;20261;-76
2022/03/30 07:58:48;;;;;;;11.17;6.90;;;;;;;3.47;99.66;99614.69;5067075;28;20187;-81
2022/03/30 08:01:13;;;;;;;9.73;7.47;;;;;;;3.57;98.05;99613.75;5070842;28;20199;-79
2022/03/30 08:03:39;;;;;;;33.13;18.80;;;;;;;3.61;97.04;99592.38;5072630;28;20183;-78
2022/03/30 08:06:04;;;;;;;7.90;6.07;;;;;;;3.74;95.32;99614.09;5074047;28;20175;-77
2022/03/30 08:08:29;;;;;;;14.43;8.60;;;;;;;3.92;94.48;99619.88;5073702;28;20289;-80
2022/03/30 08:10:55;;;;;;;17.03;10.80;;;;;;;3.79;92.77;99607.88;5073895;28;20582;-82
2022/03/30 08:13:21;;;;;;;76.37;31.20;;;;;;;3.69;90.64;99606.06;5073893;28;20210;-80
2022/03/30 08:15:46;;;;;;;30.10;15.87;;;;;;;3.69;90.73;99611.47;5073841;28;20265;-74
2022/03/30 08:18:11;;;;;;;6.87;4.33;;;;;;;3.68;90.54;99619.84;5073162;28;20193;-79
2022/03/30 08:23:22;;;;;;;15.83;10.70;;;;;;;3.85;90.01;99577.78;5069462;28;20655;-74
2022/03/30 08:25:48;;;;;;;12.47;9.70;;;;;;;4.02;88.98;99579.22;5073312;28;20221;-80
2022/03/30 08:28:13;;;;;;;52.70;24.07;;;;;;;4.02;85.94;99568.41;5073224;28;20242;-78
2022/03/30 08:30:39;;;;;;;7.17;5.40;;;;;;;4.12;84.15;99552.06;5073383;28;20175;-73
2022/03/30 08:33:05;;;;;;;23.63;14.23;;;;;;;4.12;83.06;99527.72;5073400;28;20173;-76
2022/03/30 08:35:31;;;;;;;15.50;10.33;;;;;;;4.23;82.78;99495.97;5073752;28;20202;-76
2022/03/30 08:37:57;;;;;;;14.67;6.63;;;;;;;4.27;82.79;99513.19;5072801;28;20207;-78
2022/03/30 08:40:23;;;;;;;22.60;13.70;;;;;;;4.23;82.52;99495.97;5072857;28;20672;-73
2022/03/30 08:42:49;;;;;;;11.37;4.97;;;;;;;4.30;82.15;99504.50;5073231;28;20179;-77
2022/03/30 08:45:14;;;;;;;8.53;4.57;;;;;;;4.40;81.51;99512.47;5073088;28;20262;-76
2022/03/30 08:47:40;;;;;;;8.00;4.37;;;;;;;4.66;82.15;99538.03;5071315;28;20221;-75
2022/03/30 08:50:06;;;;;;;8.17;6.67;;;;;;;4.68;81.21;99529.63;5073052;28;20254;-77
2022/03/30 08:52:32;;;;;;;8.63;5.70;;;;;;;4.63;81.29;99517.00;5072879;28;20167;-73
2022/03/30 08:54:59;;;;;;;10.03;4.80;;;;;;;4.65;81.00;99532.91;5072821;28;20253;-78
2022/03/30 08:57:25;;;;;;;8.07;4.07;;;;;;;4.73;80.37;99534.94;5072548;28;20175;-76
2022/03/30 09:00:12;;;;;;;10.43;3.80;;;;;;;4.62;80.13;99526.19;5062299;28;20641;-75
2022/03/30 09:02:40;;;;;;;5.30;3.90;;;;;;;4.82;81.00;99503.41;5067385;28;20193;-72
2022/03/30 09:05:19;;;;;;;6.97;3.90;;;;;;;4.76;79.39;99494.56;5070950;28;20182;-78
2022/03/30 09:07:48;;;;;;;5.80;3.10;;;;;;;4.95;79.58;99509.97;5068287;28;20217;-76
2022/03/30 09:10:15;;;;;;;7.83;3.73;;;;;;;4.80;78.46;99494.00;5068307;28;20194;-77
2022/03/30 09:12:43;;;;;;;9.83;5.63;;;;;;;4.99;78.78;99500.94;5071288;28;20186;-76
2022/03/30 09:15:08;;;;;;;12.10;8.87;;;;;;;5.02;77.97;99494.13;5072421;28;20183;-77
2022/03/30 09:17:38;;;;;;;11.83;2.90;;;;;;;5.11;76.96;99486.94;5072398;28;20189;-75
2022/03/30 09:20:06;;;;;;;13.33;4.87;;;;;;;5.08;76.71;99491.06;5072419;28;20629;-76
2022/03/30 09:22:33;;;;;;;8.27;3.17;;;;;;;5.35;77.09;99489.44;5072224;28;20668;-76
2022/03/30 09:24:58;;;;;;;5.67;2.63;;;;;;;5.53;76.05;99485.06;5072523;28;20194;-77
2022/03/30 09:27:24;;;;;;;4.20;2.33;;;;;;;5.60;74.90;99464.56;5072300;28;20213;-75
2022/03/30 09:29:50;;;;;;;8.53;5.13;;;;;;;5.61;74.59;99481.63;5072405;28;20171;-78
2022/03/30 09:32:15;;;;;;;6.83;3.23;;;;;;;5.26;74.05;99462.28;5072216;28;20174;-77
2022/03/30 09:34:53;;;;;;;6.13;3.53;;;;;;;5.48;74.27;99464.28;5070407;28;20538;-76
2022/03/30 09:37:19;;;;;;;6.93;5.50;;;;;;;5.44;73.61;99466.00;5072061;28;20182;-77
2022/03/30 09:39:45;;;;;;;9.87;6.60;;;;;;;5.46;73.98;99477.31;5071931;28;20660;-74
2022/03/30 09:42:11;;;;;;;4.20;3.00;;;;;;;5.40;73.80;99469.63;5072268;28;20178;-72
2022/03/30 09:45:03;;;;;;;3.97;3.47;;;;;;;5.65;73.53;99478.03;5072038;28;20177;-78
2022/03/30 09:47:37;;;;;;;6.30;4.10;;;;;;;5.72;73.23;99476.81;5071289;28;20214;-76
2022/03/30 09:50:07;;;;;;;6.87;5.20;;;;;;;5.49;73.38;99463.16;5071889;28;20257;-79
2022/03/30 09:52:33;;;;;;;24.37;14.77;;;;;;;5.74;73.85;99472.69;5070488;28;20185;-77
2022/03/30 09:55:04;;;;;;;7.63;5.90;;;;;;;5.83;72.62;99457.34;5071772;28;20186;-77
2022/03/30 09:57:41;;;;;;;6.67;6.03;;;;;;;6.00;72.38;99445.06;5071530;28;20190;-76
2022/03/30 10:00:10;;;;;;;7.50;5.10;;;;;;;5.97;72.58;99454.63;5071604;28;20182;-76
2022/03/30 10:02:37;;;;;;;7.77;5.63;;;;;;;5.78;72.02;99446.59;5071670;28;20170;-79
2022/03/30 10:05:04;;;;;;;8.10;4.50;;;;;;;5.99;72.24;99451.59;5071584;28;20179;-72
2022/03/30 10:07:29;;;;;;;10.57;4.60;;;;;;;6.10;71.52;99456.50;5071320;28;20305;-76
2022/03/30 10:09:57;;;;;;;10.27;4.17;;;;;;;6.23;71.06;99460.28;5071426;28;20174;-74
2022/03/30 10:12:23;;;;;;;8.33;5.17;;;;;;;6.26;71.07;99459.66;5071332;28;20818;-70
2022/03/30 10:14:49;;;;;;;10.17;5.07;;;;;;;6.19;70.42;99453.84;5071447;28;20226;-76
2022/03/30 10:17:15;;;;;;;6.93;5.03;;;;;;;6.18;69.66;99449.53;5070390;28;20236;-77
2022/03/30 10:19:42;;;;;;;5.03;3.27;;;;;;;6.11;69.76;99441.03;5068373;28;20194;-75
2022/03/30 10:22:41;;;;;;;7.33;5.33;;;;;;;6.14;68.93;99446.63;5063512;28;20178;-76
2022/03/30 10:25:39;;;;;;;5.03;3.83;;;;;;;6.30;68.69;99455.22;5070848;28;20179;-75
2022/03/30 10:28:24;;;;;;;7.13;4.63;;;;;;;6.30;68.51;99457.94;5067955;28;20218;-75
2022/03/30 10:30:54;;;;;;;3.43;2.80;;;;;;;6.33;67.77;99449.16;5069517;28;20261;-73
2022/03/30 10:33:33;;;;;;;6.60;3.30;;;;;;;6.39;67.52;99445.25;5069518;28;20228;-76
2022/03/30 10:36:18;;;;;;;7.47;4.00;;;;;;;6.63;67.41;99452.25;5069579;28;20475;-75
2022/03/30 10:39:16;;;;;;;6.97;3.30;;;;;;;6.84;66.99;99432.44;5070318;28;20205;-75
2022/03/30 10:41:55;;;;;;;4.97;4.23;;;;;;;6.94;66.30;99425.13;5070807;28;20170;-76
2022/03/30 10:44:41;;;;;;;4.37;3.13;;;;;;;7.25;65.92;99436.00;5070638;28;20166;-74
2022/03/30 10:47:09;;;;;;;7.10;5.20;;;;;;;7.04;65.84;99412.09;5068290;28;20185;-75
2022/03/30 10:49:52;;;;;;;8.17;3.43;;;;;;;7.01;66.20;99417.34;5070222;28;20175;-76
2022/03/30 10:52:35;;;;;;;5.67;2.40;;;;;;;7.24;66.21;99416.16;5068445;28;20214;-75
2022/03/30 10:55:12;;;;;;;5.80;4.30;;;;;;;7.17;65.04;99407.66;5062817;28;20189;-77
2022/03/30 10:57:57;;;;;;;6.77;3.20;;;;;;;7.19;64.86;99405.44;5068841;28;20188;-75
2022/03/30 11:00:34;;;;;;;5.27;3.03;;;;;;;7.28;66.11;99421.78;5069201;28;20182;-76
2022/03/30 11:03:20;;;;;;;4.30;3.20;;;;;;;7.38;65.25;99406.00;5070407;28;20170;-75
2022/03/30 11:06:06;;;;;;;6.73;3.47;;;;;;;7.50;64.05;99404.56;5070478;28;20181;-73
2022/03/30 11:08:34;;;;;;;4.37;2.67;;;;;;;7.55;64.65;99410.66;5069727;28;20214;-76
2022/03/30 11:11:22;;;;;;;3.67;2.20;;;;;;;7.47;64.59;99392.41;5070451;28;20202;-75
2022/03/30 11:13:48;;;;;;;4.67;3.33;;;;;;;7.59;64.29;99408.09;5070436;28;20178;-71
2022/03/30 11:16:14;;;;;;;7.67;3.83;;;;;;;7.80;64.08;99428.13;5070389;28;20233;-76
2022/03/30 11:18:54;;;;;;;6.07;3.20;;;;;;;7.81;63.72;99416.16;5070086;28;20409;-75
2022/03/30 11:21:21;;;;;;;5.93;2.97;;;;;;;7.98;63.65;99409.91;5069950;28;20166;-73
2022/03/30 11:24:17;;;;;;;5.43;2.53;;;;;;;7.91;62.47;99380.47;5070303;28;20177;-74
2022/03/30 11:26:49;;;;;;;5.83;3.53;;;;;;;8.15;62.64;99385.44;5070170;28;20652;-73
2022/03/30 11:29:48;;;;;;;4.63;3.70;;;;;;;7.88;61.29;99380.31;5069926;28;20201;-72
2022/03/30 11:32:22;;;;;;;5.30;3.90;;;;;;;7.65;61.46;99385.88;5068999;28;20225;-70
2022/03/30 11:34:52;;;;;;;9.40;5.03;;;;;;;7.59;62.09;99413.53;5073922;28;20166;-71
2022/03/30 11:37:18;;;;;;;6.43;4.63;;;;;;;7.56;63.07;99419.63;5074292;28;20190;-71
2022/03/30 11:39:44;;;;;;;6.23;4.60;;;;;;;7.61;62.82;99420.25;5074144;28;20182;-71
2022/03/30 11:42:10;;;;;;;6.00;4.83;;;;;;;7.75;62.99;99423.63;5074311;28;20629;-71
2022/03/30 11:47:25;;;;;;;7.10;4.07;;;;;;;7.67;62.65;99410.06;5073951;28;20177;-69
2022/03/30 11:49:55;;;;;;;6.90;5.00;;;;;;;7.99;62.43;99417.75;5074767;28;20175;-71